This is the latest recevied weather packets stored in our database for station/object E24OWX-1. If no packets are shown the sender has not sent any weather packets the latest 1 day(s).
| Time | Temp. | Humidity | Pressure | Rain* | Wind** | Luminosity | Snow |
|---|---|---|---|---|---|---|---|
| 1778074323 | 34.44° C | 99% | 1005 hPa | - | - | 0 W/m² | - |
| 1778070635 | 35° C | 99% | 1003 hPa | - | - | 0 W/m² | - |
| 1778058649 | 38.33° C | 74% | 1002 hPa | - | - | 0 W/m² | - |
| 1778056805 | 38.89° C | 74% | 1003 hPa | - | - | 0 W/m² | - |
| 1778055883 | 38.89° C | 77% | 1003 hPa | - | - | 0 W/m² | - |
| 1778054960 | 38.89° C | 75% | 1003 hPa | - | - | 0 W/m² | - |
| 1778054039 | 38.89° C | 71% | 1004 hPa | - | - | 0 W/m² | - |
| 1778053116 | 38.89° C | 78% | 1004 hPa | - | - | 0 W/m² | - |
| 1778051272 | 38.89° C | 81% | 1004 hPa | - | - | 0 W/m² | - |
| 1778049429 | 38.33° C | 86% | 1005 hPa | - | - | 0 W/m² | - |
| 1778048509 | 38.33° C | 89% | 1005 hPa | - | - | 0 W/m² | - |
| 1778047585 | 38.33° C | 91% | 1006 hPa | - | - | 0 W/m² | - |
| 1778045741 | 37.22° C | 98% | 1006 hPa | - | - | 0 W/m² | - |
| 1778043896 | 37.22° C | 99% | 1007 hPa | - | - | 0 W/m² | - |
| 1778042975 | 36.67° C | 99% | 1007 hPa | - | - | 0 W/m² | - |
| 1778041130 | 36.67° C | 99% | 1008 hPa | - | - | 0 W/m² | - |
| 1778040208 | 36.11° C | 99% | 1008 hPa | - | - | 0 W/m² | - |
| 1778038364 | 35.56° C | 99% | 1008 hPa | - | - | 0 W/m² | - |
| 1778037442 | 35.56° C | 99% | 1008 hPa | - | - | 0 W/m² | - |
| 1778036520 | 35° C | 99% | 1008 hPa | - | - | 0 W/m² | - |
| 1778035598 | 35° C | 99% | 1008 hPa | - | - | 0 W/m² | - |
| 1778034676 | 33.89° C | 99% | 1008 hPa | - | - | 0 W/m² | - |
| 1778033754 | 33.89° C | 99% | 1008 hPa | - | - | 0 W/m² | - |
| 1778031910 | 32.78° C | 99% | 1009 hPa | - | - | 0 W/m² | - |
| 1778030988 | 32.22° C | 99% | 1008 hPa | - | - | 0 W/m² | - |
* Rain since midnight (hover to see other rain measurements)
** Current wind speed in m/s (hover to see current wind gust speed)